Boston, Massachusetts
Current Conditions -  °F | °C
As of 2:54 AM on Friday 31 Oct 2014 (Local Time) from KBOS Reporting Station
Overcast Overcast  
Wind Chill: 42°   Ceiling: 6000
Heat Index: 46°   Visibility: 10mi
Dew Point: 39°   Wind: 8mph
Humidity: 76%   Direction: 20°NNE
Pressure: 30.01"   Gusts: NA
Location:  42.36°N, 71.06°W
Report Text: KBOS 310654Z 02007KT 10SM FEW045 OVC060 08/04 A3001 RMK AO2 SLP160 T00780039
Loading
Personal Weather Stations






























Interactive Weather Map
Tropical Storm Tracking
New forecast layout! Learn more

10-Day Weather Forecast

Advertisements
Track Severe Weather on mobile